Time;durP1;ratioP1;P1;durP2;ratioP2;P2;SDS_P1;SDS_P2;PMS_P1;PMS_P2;Temp;Humidity;BMP_temperature;BMP_pressure;BME280_temperature;BME280_humidity;BME280_pressure;Samples;Min_cycle;Max_cycle;Signal;HPM_P1;HPM_P2
2023/05/18 00:00:34;;;;;;;5.27;2.23;;;12.80;1.00;;;;;;5008198;28;20460;-73
2023/05/18 00:03:02;;;;;;;5.23;2.40;;;12.70;1.00;;;;;;5009814;28;20213;-74
2023/05/18 00:05:32;;;;;;;6.43;2.13;;;12.70;1.00;;;;;;5011897;28;20661;-74
2023/05/18 00:07:58;;;;;;;6.10;2.10;;;12.60;1.00;;;;;;5010025;28;20426;-74
2023/05/18 00:10:24;;;;;;;7.70;2.07;;;12.60;1.00;;;;;;5010233;28;21040;-73
2023/05/18 00:12:50;;;;;;;8.27;2.70;;;12.60;1.00;;;;;;5009245;28;20465;-74
2023/05/18 00:15:15;;;;;;;9.93;2.30;;;12.50;1.00;;;;;;5010342;28;20193;-74
2023/05/18 00:17:41;;;;;;;6.93;2.50;;;12.60;1.00;;;;;;5009041;28;20190;-74
2023/05/18 00:20:08;;;;;;;8.23;2.40;;;12.60;1.00;;;;;;5008965;28;20206;-75
2023/05/18 00:22:34;;;;;;;6.03;2.10;;;12.60;1.00;;;;;;5010719;28;20285;-74
2023/05/18 00:24:59;;;;;;;8.13;3.00;;;12.90;1.00;;;;;;5008730;28;20519;-74
2023/05/18 00:27:25;;;;;;;3.60;2.20;;;12.50;1.00;;;;;;5009811;28;20186;-74
2023/05/18 00:29:51;;;;;;;8.53;2.63;;;12.60;1.00;;;;;;5009615;28;20732;-74
2023/05/18 00:32:16;;;;;;;7.90;2.17;;;12.60;1.00;;;;;;5009188;28;20190;-73
2023/05/18 00:34:42;;;;;;;8.60;2.70;;;12.60;1.00;;;;;;5005127;28;20664;-74
2023/05/18 00:37:07;;;;;;;10.20;2.40;;;12.60;1.00;;;;;;5009302;28;20182;-75
2023/05/18 00:39:33;;;;;;;5.87;1.93;;;12.60;1.00;;;;;;5009920;28;20187;-75
2023/05/18 00:41:58;;;;;;;7.17;2.20;;;12.60;1.00;;;;;;5008529;28;20209;-74
2023/05/18 00:44:24;;;;;;;7.70;2.73;;;12.60;1.00;;;;;;5009087;28;20706;-69
2023/05/18 00:46:49;;;;;;;6.57;2.40;;;12.60;1.00;;;;;;5008066;28;20186;-74
2023/05/18 00:49:15;;;;;;;9.63;2.67;;;12.60;1.00;;;;;;5007989;28;20290;-74
2023/05/18 00:51:41;;;;;;;7.83;3.03;;;12.60;1.00;;;;;;5008753;28;20347;-74
2023/05/18 00:54:07;;;;;;;9.77;2.50;;;12.70;1.00;;;;;;5008470;28;20175;-74
2023/05/18 00:56:35;;;;;;;9.73;2.70;;;12.60;1.00;;;;;;5009280;28;20452;-74
2023/05/18 00:59:02;;;;;;;13.50;2.60;;;12.60;1.00;;;;;;5008555;28;20182;-74
2023/05/18 01:01:35;;;;;;;7.90;3.13;;;12.50;1.00;;;;;;5009766;28;20902;-74
2023/05/18 01:04:02;;;;;;;5.83;2.30;;;12.50;1.00;;;;;;5008384;28;20468;-74
2023/05/18 01:06:34;;;;;;;8.07;2.53;;;12.50;1.00;;;;;;5009724;28;20433;-72
2023/05/18 01:09:02;;;;;;;5.73;2.27;;;12.50;1.00;;;;;;5007618;28;20961;-74
2023/05/18 01:11:41;;;;;;;8.70;2.40;;;12.40;1.00;;;;;;5010849;28;20457;-74
2023/05/18 01:14:10;;;;;;;9.67;2.67;;;12.40;1.00;;;;;;5001065;28;20444;-74
2023/05/18 01:16:47;;;;;;;6.70;2.20;;;12.30;1.00;;;;;;5010881;28;20517;-73
2023/05/18 01:19:45;;;;;;;5.73;2.67;;;12.30;1.00;;;;;;5000241;28;20440;-74
2023/05/18 01:22:36;;;;;;;6.37;2.43;;;12.30;1.00;;;;;;4983991;28;20488;-74
2023/05/18 01:25:08;;;;;;;9.20;1.97;;;12.30;1.00;;;;;;5009237;28;20515;-74
2023/05/18 01:27:36;;;;;;;7.97;2.40;;;12.20;1.00;;;;;;5011094;28;20422;-74
2023/05/18 01:30:03;;;;;;;5.30;2.33;;;12.20;1.00;;;;;;5006848;28;20488;-74
2023/05/18 01:32:29;;;;;;;6.60;2.63;;;12.20;1.00;;;;;;5006768;28;20446;-74
2023/05/18 01:34:55;;;;;;;5.33;2.57;;;12.20;1.00;;;;;;5009750;28;20831;-74
2023/05/18 01:37:20;;;;;;;5.93;2.40;;;12.20;1.00;;;;;;5009126;28;20274;-75
2023/05/18 01:39:46;;;;;;;6.50;2.90;;;12.10;1.00;;;;;;5007016;28;20182;-74
2023/05/18 01:42:18;;;;;;;8.30;3.00;;;12.10;1.00;;;;;;5010358;28;20306;-74
2023/05/18 01:44:52;;;;;;;6.80;2.50;;;12.10;1.00;;;;;;5006467;28;20273;-74
2023/05/18 01:47:18;;;;;;;9.17;2.87;;;12.00;1.00;;;;;;5008836;28;20482;-73
2023/05/18 01:49:52;;;;;;;7.03;2.33;;;12.00;1.00;;;;;;5005382;28;20457;-74
2023/05/18 01:52:35;;;;;;;6.73;2.53;;;12.00;1.00;;;;;;5002487;28;20190;-71
2023/05/18 01:55:02;;;;;;;8.50;2.83;;;11.90;1.00;;;;;;5007805;28;20496;-74
2023/05/18 01:57:31;;;;;;;8.03;2.83;;;11.90;1.00;;;;;;5007743;28;20516;-72
2023/05/18 02:00:00;;;;;;;8.00;2.83;;;11.80;1.00;;;;;;5005026;28;20444;-74
2023/05/18 02:02:27;;;;;;;7.07;3.00;;;11.80;1.00;;;;;;5007787;28;20461;-74
2023/05/18 02:04:52;;;;;;;7.70;2.67;;;11.80;1.00;;;;;;5000319;28;20456;-74
2023/05/18 02:07:18;;;;;;;6.50;3.00;;;11.70;1.00;;;;;;5010118;28;20943;-74
2023/05/18 02:09:44;;;;;;;12.67;2.90;;;11.60;1.00;;;;;;5008203;28;20181;-75
2023/05/18 02:12:10;;;;;;;7.83;2.40;;;11.60;1.00;;;;;;5001619;28;20517;-72
2023/05/18 02:14:36;;;;;;;10.50;3.00;;;11.60;1.00;;;;;;4999337;28;20190;-74
2023/05/18 02:17:02;;;;;;;8.20;2.33;;;11.50;1.00;;;;;;5005583;28;20440;-74
2023/05/18 02:19:29;;;;;;;7.93;2.97;;;11.40;1.00;;;;;;5009936;28;20183;-74
2023/05/18 02:21:56;;;;;;;9.13;2.60;;;11.40;1.00;;;;;;5007752;28;20692;-74
2023/05/18 02:24:23;;;;;;;12.00;2.40;;;11.30;1.00;;;;;;5006883;28;20947;-74
2023/05/18 02:26:50;;;;;;;9.83;2.90;;;11.30;1.00;;;;;;5008506;28;20425;-73
2023/05/18 02:29:15;;;;;;;11.63;2.83;;;11.20;1.00;;;;;;5007590;28;20425;-75
2023/05/18 02:31:41;;;;;;;8.03;2.77;;;11.20;1.00;;;;;;5009574;28;20467;-74
2023/05/18 02:34:07;;;;;;;7.80;2.20;;;11.20;1.00;;;;;;5006292;28;20186;-74
2023/05/18 02:36:38;;;;;;;8.27;2.70;;;11.20;1.00;;;;;;5008129;28;20244;-73
2023/05/18 02:39:05;;;;;;;7.43;2.50;;;11.10;1.00;;;;;;5005981;28;20821;-74
2023/05/18 02:41:35;;;;;;;10.03;2.83;;;11.00;1.00;;;;;;5009143;28;20481;-73
2023/05/18 02:44:03;;;;;;;7.60;2.57;;;11.10;1.00;;;;;;5008624;28;20449;-75
2023/05/18 02:46:29;;;;;;;7.07;2.93;;;11.10;1.00;;;;;;5005297;28;20936;-74
2023/05/18 02:48:55;;;;;;;7.53;2.33;;;11.10;1.00;;;;;;5007801;28;20440;-74
2023/05/18 02:51:21;;;;;;;7.00;2.43;;;11.00;1.00;;;;;;5002288;28;20256;-74
2023/05/18 02:53:47;;;;;;;7.30;2.90;;;11.00;1.00;;;;;;5004245;28;20182;-74
2023/05/18 02:56:13;;;;;;;12.10;2.70;;;11.00;1.00;;;;;;5006696;28;20808;-75
2023/05/18 02:58:42;;;;;;;7.87;2.60;;;11.00;1.00;;;;;;5008326;28;20182;-75
2023/05/18 03:01:08;;;;;;;7.43;2.73;;;10.90;1.00;;;;;;5006595;28;20234;-73
2023/05/18 03:03:34;;;;;;;10.63;2.57;;;11.00;1.00;;;;;;5006517;28;20563;-74
2023/05/18 03:06:01;;;;;;;12.70;3.30;;;10.90;1.00;;;;;;5006080;28;20186;-72
2023/05/18 03:08:27;;;;;;;6.20;2.63;;;10.90;1.00;;;;;;5001354;28;20693;-74
2023/05/18 03:10:53;;;;;;;10.40;2.87;;;10.90;1.00;;;;;;5003570;28;20966;-74
2023/05/18 03:13:19;;;;;;;7.17;2.67;;;10.90;1.00;;;;;;5006841;28;21250;-74
2023/05/18 03:15:45;;;;;;;8.97;2.60;;;10.90;1.00;;;;;;5006521;28;20440;-70
2023/05/18 03:18:10;;;;;;;9.03;2.67;;;10.80;1.00;;;;;;5006659;28;20186;-74
2023/05/18 03:20:36;;;;;;;8.50;2.90;;;10.80;1.00;;;;;;5007113;28;20206;-74
2023/05/18 03:23:02;;;;;;;7.90;3.20;;;10.80;1.00;;;;;;5005690;28;20292;-74
2023/05/18 03:25:29;;;;;;;10.20;4.40;;;10.80;1.00;;;;;;5011163;28;20449;-75
2023/05/18 03:27:54;;;;;;;7.53;2.57;;;10.80;1.00;;;;;;5009414;28;20206;-73
2023/05/18 03:30:20;;;;;;;12.93;2.70;;;10.80;1.00;;;;;;5010415;28;20503;-75
2023/05/18 03:32:46;;;;;;;8.67;2.87;;;10.80;1.00;;;;;;5006415;28;20638;-71
2023/05/18 03:35:12;;;;;;;9.57;2.97;;;10.80;1.00;;;;;;5007981;28;20193;-74
2023/05/18 03:37:38;;;;;;;11.83;3.30;;;10.80;1.00;;;;;;5010737;28;20955;-74
2023/05/18 03:40:12;;;;;;;10.03;2.50;;;10.80;1.00;;;;;;5009292;28;20469;-74
2023/05/18 03:42:39;;;;;;;7.77;2.83;;;10.80;1.00;;;;;;5009449;28;20202;-74
2023/05/18 03:45:06;;;;;;;13.53;3.20;;;10.80;1.00;;;;;;5010189;28;20962;-74
2023/05/18 03:47:32;;;;;;;7.17;2.50;;;10.80;1.00;;;;;;5010966;28;20433;-74
2023/05/18 03:49:58;;;;;;;10.00;2.60;;;10.80;1.00;;;;;;5008598;28;20453;-74
2023/05/18 03:52:23;;;;;;;9.23;2.90;;;10.80;1.00;;;;;;5010111;28;20682;-75
2023/05/18 03:54:49;;;;;;;10.90;2.73;;;10.80;1.00;;;;;;5009861;28;20190;-73
2023/05/18 03:57:16;;;;;;;7.60;2.40;;;10.70;1.00;;;;;;5010998;28;20183;-74
2023/05/18 03:59:42;;;;;;;7.40;2.50;;;10.70;1.00;;;;;;5010851;28;20479;-74
2023/05/18 04:02:10;;;;;;;7.30;3.20;;;10.70;1.00;;;;;;5007598;28;20476;-71
2023/05/18 04:04:35;;;;;;;8.03;3.00;;;10.70;1.00;;;;;;5010868;28;20437;-74
2023/05/18 04:07:04;;;;;;;6.50;2.33;;;10.70;1.00;;;;;;5008139;28;21036;-74
2023/05/18 04:09:30;;;;;;;5.57;2.40;;;10.80;1.00;;;;;;5010831;28;20178;-75
2023/05/18 04:11:56;;;;;;;11.33;3.13;;;10.80;1.00;;;;;;5009978;28;21124;-73
2023/05/18 04:14:23;;;;;;;10.10;2.83;;;10.80;1.00;;;;;;5009735;28;20206;-71
2023/05/18 04:16:50;;;;;;;6.63;2.80;;;10.80;1.00;;;;;;5010619;28;20537;-70
2023/05/18 04:19:17;;;;;;;5.97;2.20;;;10.80;1.00;;;;;;5007152;28;20440;-72
2023/05/18 04:21:46;;;;;;;6.63;2.83;;;10.80;1.00;;;;;;5010414;28;20464;-72
2023/05/18 04:24:13;;;;;;;9.03;2.50;;;10.80;1.00;;;;;;5008640;28;20437;-72
2023/05/18 04:26:38;;;;;;;8.47;2.43;;;10.80;1.00;;;;;;5010270;28;20452;-72
2023/05/18 04:29:06;;;;;;;8.17;2.63;;;10.90;1.00;;;;;;5009966;28;20476;-71
2023/05/18 04:31:33;;;;;;;6.10;2.73;;;10.90;1.00;;;;;;5006713;28;20301;-72
2023/05/18 04:33:59;;;;;;;5.97;2.30;;;10.90;1.00;;;;;;5009356;28;20451;-72
2023/05/18 04:36:29;;;;;;;5.53;2.37;;;11.00;1.00;;;;;;5009512;28;20808;-71
2023/05/18 04:38:57;;;;;;;8.00;2.40;;;11.00;1.00;;;;;;5009232;28;20170;-72
2023/05/18 04:41:23;;;;;;;6.40;2.40;;;11.00;1.00;;;;;;5008177;28;20461;-71
2023/05/18 04:43:49;;;;;;;6.80;2.40;;;11.00;1.00;;;;;;5004214;28;21583;-71
2023/05/18 04:46:15;;;;;;;8.27;2.60;;;11.10;1.00;;;;;;5005655;28;20440;-72
2023/05/18 04:48:41;;;;;;;5.60;2.60;;;11.10;1.00;;;;;;5009324;28;20187;-72
2023/05/18 04:51:07;;;;;;;6.93;2.60;;;11.10;1.00;;;;;;5009533;28;20823;-72
2023/05/18 04:53:33;;;;;;;9.70;2.33;;;11.10;1.00;;;;;;5007158;28;20182;-72
2023/05/18 04:56:00;;;;;;;8.13;2.57;;;11.20;1.00;;;;;;5009953;28;20190;-72
2023/05/18 04:58:29;;;;;;;6.03;2.40;;;11.20;1.00;;;;;;5010036;28;20263;-72
2023/05/18 05:00:55;;;;;;;7.27;2.30;;;11.20;1.00;;;;;;5008161;28;20467;-71
2023/05/18 05:03:21;;;;;;;5.83;2.40;;;11.30;1.00;;;;;;5009793;28;20970;-72
2023/05/18 05:05:46;;;;;;;9.47;2.40;;;11.30;1.00;;;;;;5009234;28;20453;-72
2023/05/18 05:08:12;;;;;;;6.20;2.40;;;11.30;1.00;;;;;;5009388;28;20545;-72
2023/05/18 05:10:37;;;;;;;11.07;3.07;;;11.30;1.00;;;;;;5008254;28;20253;-72
2023/05/18 05:13:03;;;;;;;14.10;2.60;;;11.40;1.00;;;;;;5007604;28;20182;-73
2023/05/18 05:15:29;;;;;;;6.90;2.43;;;11.40;1.00;;;;;;5008884;28;20738;-73
2023/05/18 05:17:56;;;;;;;6.57;2.70;;;11.50;1.00;;;;;;5007795;28;20183;-71
2023/05/18 05:20:21;;;;;;;10.83;3.07;;;11.50;1.00;;;;;;5009554;28;20600;-72
2023/05/18 05:22:47;;;;;;;5.60;2.30;;;11.60;1.00;;;;;;5008550;28;20480;-72
2023/05/18 05:25:12;;;;;;;10.13;2.87;;;11.60;1.00;;;;;;5008483;28;20182;-72
2023/05/18 05:27:38;;;;;;;6.93;3.00;;;11.60;1.00;;;;;;5009650;28;20177;-71
2023/05/18 05:30:04;;;;;;;5.47;2.87;;;11.70;1.00;;;;;;5006781;28;20692;-72
2023/05/18 05:32:30;;;;;;;4.93;2.40;;;11.70;1.00;;;;;;5008749;28;20175;-71
2023/05/18 05:34:55;;;;;;;6.57;2.70;;;11.80;1.00;;;;;;5008340;28;20808;-72
2023/05/18 05:37:21;;;;;;;5.50;2.73;;;11.80;1.00;;;;;;5008432;28;20195;-72
2023/05/18 05:39:46;;;;;;;9.03;2.80;;;11.90;1.00;;;;;;5008702;28;20181;-72
2023/05/18 05:42:13;;;;;;;4.77;2.43;;;11.70;1.00;;;;;;5007698;28;20643;-73
2023/05/18 05:44:39;;;;;;;8.63;2.73;;;11.90;1.00;;;;;;5008379;28;20186;-73
2023/05/18 05:47:05;;;;;;;6.70;2.37;;;12.00;1.00;;;;;;5008090;28;20442;-72
2023/05/18 05:49:31;;;;;;;10.10;2.70;;;12.00;1.00;;;;;;5007720;28;20491;-72
2023/05/18 05:51:56;;;;;;;8.50;2.97;;;12.00;1.00;;;;;;5007831;28;20216;-72
2023/05/18 05:54:21;;;;;;;9.17;2.70;;;12.00;1.00;;;;;;5007375;28;20186;-72
2023/05/18 05:56:47;;;;;;;9.80;3.17;;;12.10;1.00;;;;;;5007649;28;20182;-72
2023/05/18 05:59:12;;;;;;;11.70;2.27;;;12.20;1.00;;;;;;5006333;28;20185;-71
2023/05/18 06:01:38;;;;;;;15.03;3.10;;;12.20;1.00;;;;;;5007380;28;20217;-72
2023/05/18 06:04:05;;;;;;;4.30;2.30;;;12.30;1.00;;;;;;5006887;28;20175;-72
2023/05/18 06:06:31;;;;;;;5.50;2.30;;;12.40;1.00;;;;;;5008503;28;20183;-71
2023/05/18 06:08:56;;;;;;;5.53;2.23;;;12.40;1.00;;;;;;5007940;28;21017;-72
2023/05/18 06:11:22;;;;;;;7.07;2.67;;;12.50;1.00;;;;;;5006513;28;20627;-71
2023/05/18 06:13:48;;;;;;;5.70;2.77;;;12.60;1.00;;;;;;5014415;28;20661;-72
2023/05/18 06:16:13;;;;;;;5.50;2.67;;;12.70;1.00;;;;;;5007603;28;20665;-72
2023/05/18 06:18:39;;;;;;;5.33;2.50;;;12.70;1.00;;;;;;5006888;28;20217;-72
2023/05/18 06:21:04;;;;;;;13.73;3.30;;;12.70;1.00;;;;;;5006211;28;20293;-73
2023/05/18 06:23:30;;;;;;;7.27;2.20;;;12.80;1.00;;;;;;5006742;28;20297;-72
2023/05/18 06:25:55;;;;;;;5.67;2.40;;;12.80;1.00;;;;;;5006549;28;20202;-72
2023/05/18 06:28:21;;;;;;;8.83;2.67;;;12.90;1.00;;;;;;5005182;28;20193;-70
2023/05/18 06:30:46;;;;;;;9.93;2.83;;;13.00;1.00;;;;;;5007127;28;20201;-73
2023/05/18 06:33:13;;;;;;;7.60;2.70;;;13.00;1.00;;;;;;5004588;28;20199;-72
2023/05/18 06:35:39;;;;;;;14.57;2.57;;;13.10;1.00;;;;;;5006819;28;20182;-71
2023/05/18 06:38:04;;;;;;;6.37;2.43;;;13.20;1.00;;;;;;5006625;28;20472;-72
2023/05/18 06:40:30;;;;;;;6.40;2.87;;;13.40;1.00;;;;;;5008148;28;20206;-69
2023/05/18 06:42:55;;;;;;;9.47;2.63;;;13.50;1.00;;;;;;5006370;28;20230;-71
2023/05/18 06:45:21;;;;;;;8.20;2.55;;;13.60;1.00;;;;;;5004547;28;20438;-73
2023/05/18 06:47:47;;;;;;;6.67;3.17;;;13.70;1.00;;;;;;5009964;28;20193;-72
2023/05/18 06:50:12;;;;;;;6.07;2.77;;;13.90;1.00;;;;;;5009637;28;20723;-72
2023/05/18 06:52:38;;;;;;;8.97;3.00;;;14.00;1.00;;;;;;5010213;28;20457;-72
2023/05/18 06:55:04;;;;;;;7.37;2.70;;;14.20;1.00;;;;;;5009757;28;20190;-73
2023/05/18 06:57:30;;;;;;;10.83;3.40;;;14.30;1.00;;;;;;5009652;28;20183;-71
2023/05/18 06:59:56;;;;;;;6.87;2.80;;;14.40;1.00;;;;;;5009523;28;20492;-73
2023/05/18 07:02:22;;;;;;;6.43;2.60;;;14.40;1.00;;;;;;5008161;28;21053;-71
2023/05/18 07:04:48;;;;;;;10.73;2.50;;;14.60;1.00;;;;;;5009957;28;20205;-72
2023/05/18 07:07:15;;;;;;;6.97;2.90;;;14.80;1.00;;;;;;5009915;28;20190;-73
2023/05/18 07:09:42;;;;;;;5.40;2.10;;;15.00;1.00;;;;;;5009812;28;20422;-72
2023/05/18 07:12:08;;;;;;;7.37;3.03;;;15.30;1.00;;;;;;5009352;28;20464;-71
2023/05/18 07:14:33;;;;;;;7.10;3.00;;;15.40;1.00;;;;;;5009805;28;20484;-72
2023/05/18 07:16:59;;;;;;;5.30;2.40;;;15.60;1.00;;;;;;5009724;28;20178;-71
2023/05/18 07:19:24;;;;;;;11.40;2.83;;;15.80;1.00;;;;;;5009018;28;20201;-71
2023/05/18 07:21:50;;;;;;;8.97;3.40;;;16.10;1.00;;;;;;5008414;28;20704;-73
2023/05/18 07:24:15;;;;;;;11.50;3.10;;;16.30;1.00;;;;;;5008304;28;20225;-71
2023/05/18 07:26:41;;;;;;;11.00;3.00;;;16.50;1.00;;;;;;5009722;28;20723;-74
2023/05/18 07:29:06;;;;;;;5.90;3.07;;;16.80;1.00;;;;;;5009788;28;20194;-71
2023/05/18 07:31:32;;;;;;;6.13;3.47;;;17.00;1.00;;;;;;5009377;28;20248;-71
2023/05/18 07:33:58;;;;;;;7.50;3.00;;;17.20;1.00;;;;;;5005514;28;20815;-71
2023/05/18 07:36:24;;;;;;;7.60;3.07;;;17.30;1.00;;;;;;5005402;28;20657;-71
2023/05/18 07:38:53;;;;;;;9.30;3.23;;;17.30;1.00;;;;;;5008691;28;20183;-71
2023/05/18 07:41:19;;;;;;;7.17;3.20;;;;;;;;;;5006093;28;20460;-71
2023/05/18 07:43:45;;;;;;;6.57;2.73;;;17.20;1.00;;;;;;5007714;28;20993;-71
2023/05/18 07:46:10;;;;;;;7.70;3.00;;;17.20;1.00;;;;;;5008630;28;20532;-71
2023/05/18 07:48:36;;;;;;;7.00;3.10;;;17.20;1.00;;;;;;5009947;28;20262;-71
2023/05/18 07:51:01;;;;;;;8.10;3.27;;;17.20;1.00;;;;;;5009047;28;20721;-71
2023/05/18 07:53:27;;;;;;;9.00;3.50;;;17.40;1.00;;;;;;5009638;28;20187;-71
2023/05/18 07:55:53;;;;;;;7.17;3.33;;;17.70;1.00;;;;;;5007818;28;20235;-71
2023/05/18 07:58:18;;;;;;;9.30;3.80;;;17.80;1.00;;;;;;5009079;28;20187;-71
2023/05/18 08:00:44;;;;;;;5.97;3.17;;;17.90;1.00;;;;;;5009353;28;20222;-71
2023/05/18 08:03:09;;;;;;;8.80;3.13;;;18.00;1.00;;;;;;5008524;28;20272;-71
2023/05/18 08:05:35;;;;;;;8.13;3.10;;;18.00;1.00;;;;;;5009972;28;20224;-71
2023/05/18 08:08:01;;;;;;;8.93;3.83;;;18.10;1.00;;;;;;5005692;28;20195;-69
2023/05/18 08:10:27;;;;;;;8.93;3.33;;;18.30;1.00;;;;;;5003033;28;20209;-69
2023/05/18 08:12:52;;;;;;;8.20;3.07;;;18.50;1.00;;;;;;5012766;28;20425;-70
2023/05/18 08:15:18;;;;;;;8.57;3.50;;;18.60;1.00;;;;;;5011951;28;20608;-75
2023/05/18 08:17:43;;;;;;;9.90;3.10;;;18.80;1.00;;;;;;5009380;28;20214;-70
2023/05/18 08:20:09;;;;;;;6.17;2.90;;;18.80;1.00;;;;;;5011609;28;20305;-71
2023/05/18 08:22:35;;;;;;;10.73;3.63;;;19.10;1.00;;;;;;5013032;28;20244;-71
2023/05/18 08:25:00;;;;;;;8.97;3.30;;;19.30;1.00;;;;;;5012593;28;20464;-71
2023/05/18 08:27:27;;;;;;;12.27;3.63;;;19.40;1.00;;;;;;5012607;28;20182;-72
2023/05/18 08:29:53;;;;;;;11.60;3.50;;;19.60;1.00;;;;;;5013026;28;20181;-71
2023/05/18 08:32:18;;;;;;;10.50;3.10;;;19.60;1.00;;;;;;5011682;28;20523;-73
2023/05/18 08:34:44;;;;;;;9.80;3.20;;;19.60;1.00;;;;;;5012374;28;20182;-71
2023/05/18 08:37:09;;;;;;;8.43;3.53;;;19.70;1.00;;;;;;5009548;28;20197;-72
2023/05/18 08:39:36;;;;;;;9.93;3.40;;;19.80;1.00;;;;;;5011749;28;20278;-72
2023/05/18 08:42:20;;;;;;;11.30;3.40;;;20.10;1.00;;;;;;5012400;28;20198;-71
2023/05/18 08:44:57;;;;;;;10.90;3.33;;;20.60;1.00;;;;;;5007179;28;20855;-72
2023/05/18 08:47:25;;;;;;;8.13;3.40;;;21.60;1.00;;;;;;5010967;28;20444;-73
2023/05/18 08:49:51;;;;;;;7.63;3.40;;;23.70;1.00;;;;;;5008912;28;20438;-72
2023/05/18 08:52:21;;;;;;;11.40;3.50;;;23.70;1.00;;;;;;5011780;28;20512;-71
2023/05/18 08:54:50;;;;;;;8.73;3.13;;;24.70;1.00;;;;;;5009125;28;20822;-73
2023/05/18 08:57:18;;;;;;;7.67;3.30;;;25.10;1.00;;;;;;5009923;28;20424;-73
2023/05/18 08:59:45;;;;;;;7.60;3.40;;;26.30;1.00;;;;;;5011980;28;20442;-71
2023/05/18 09:02:11;;;;;;;10.57;3.67;;;26.30;1.00;;;;;;5011064;28;20464;-72
2023/05/18 09:04:37;;;;;;;8.23;3.13;;;26.50;1.00;;;;;;5011019;28;20652;-71
2023/05/18 09:07:04;;;;;;;12.93;3.33;;;26.90;1.00;;;;;;5015220;28;20177;-73
2023/05/18 09:09:30;;;;;;;6.07;2.70;;;27.20;1.00;;;;;;5018260;28;20186;-72
2023/05/18 09:11:57;;;;;;;7.90;3.03;;;28.00;1.00;;;;;;5011100;28;20213;-73
2023/05/18 09:14:24;;;;;;;7.93;3.33;;;27.80;1.00;;;;;;5007907;28;20225;-73
2023/05/18 09:16:54;;;;;;;7.35;3.33;;;28.50;1.00;;;;;;5011653;28;20251;-73
2023/05/18 09:19:20;;;;;;;7.35;3.25;;;27.80;1.00;;;;;;5011062;28;20197;-72
2023/05/18 09:21:46;;;;;;;13.15;3.60;;;27.30;1.00;;;;;;5010331;28;20202;-72
2023/05/18 09:24:12;;;;;;;9.00;3.17;;;;;;;;;;5010723;28;20248;-73
2023/05/18 09:26:38;;;;;;;15.00;3.00;;;28.40;1.00;;;;;;5011461;28;20257;-73
2023/05/18 09:29:18;;;;;;;9.50;2.90;;;29.20;1.00;;;;;;5011557;28;20217;-74
2023/05/18 09:31:45;;;;;;;8.57;3.00;;;30.40;1.00;;;;;;5003721;28;20229;-74
2023/05/18 09:34:12;;;;;;;7.68;2.92;;;31.00;1.00;;;;;;5010339;28;20182;-74
2023/05/18 09:36:37;;;;;;;8.27;3.00;;;30.70;1.00;;;;;;5011253;28;20186;-73
2023/05/18 09:39:10;;;;;;;9.60;4.20;;;30.40;1.00;;;;;;5011206;28;20197;-74
2023/05/18 09:41:39;;;;;;;8.88;3.30;;;29.70;1.00;;;;;;5006919;28;20878;-73
2023/05/18 09:44:08;;;;;;;7.25;3.10;;;29.80;1.00;;;;;;5001087;28;20178;-73
2023/05/18 09:46:39;;;;;;;8.20;3.30;;;30.30;1.00;;;;;;5002942;28;20970;-73
2023/05/18 09:49:06;;;;;;;11.70;3.72;;;30.00;1.00;;;;;;5007754;28;20186;-74
2023/05/18 09:51:39;;;;;;;8.38;3.20;;;29.20;1.00;;;;;;5009043;28;20289;-73
2023/05/18 09:54:07;;;;;;;10.25;3.47;;;29.50;1.00;;;;;;5009368;28;20188;-73
2023/05/18 09:56:36;;;;;;;10.60;3.10;;;30.30;1.00;;;;;;5002451;28;20182;-73
2023/05/18 09:59:13;;;;;;;10.05;3.25;;;30.10;1.00;;;;;;5010766;28;20273;-73
2023/05/18 10:01:55;;;;;;;6.75;3.38;;;30.60;1.00;;;;;;5003605;28;20296;-73
2023/05/18 10:04:21;;;;;;;7.93;3.10;;;30.80;1.00;;;;;;5008150;28;20190;-73
2023/05/18 10:06:49;;;;;;;9.95;3.20;;;29.90;1.00;;;;;;5010572;28;20205;-73
2023/05/18 10:09:15;;;;;;;5.95;2.90;;;30.40;1.00;;;;;;5009554;28;20265;-74
2023/05/18 10:11:42;;;;;;;8.48;3.38;;;31.20;1.00;;;;;;5007085;28;20256;-74
2023/05/18 10:14:10;;;;;;;8.57;3.15;;;31.60;1.00;;;;;;5010671;28;20198;-74
2023/05/18 10:16:36;;;;;;;7.43;3.20;;;31.40;1.00;;;;;;5010517;28;20194;-74
2023/05/18 10:19:05;;;;;;;8.38;2.70;;;31.40;1.00;;;;;;5010507;28;20174;-74
2023/05/18 10:21:33;;;;;;;7.35;3.20;;;31.60;1.00;;;;;;5009546;28;20292;-74
2023/05/18 10:24:02;;;;;;;8.88;3.42;;;31.60;1.00;;;;;;5009980;28;20216;-75
2023/05/18 10:26:33;;;;;;;12.02;3.38;;;31.40;1.00;;;;;;5010203;28;20208;-75
2023/05/18 10:28:59;;;;;;;8.80;3.50;;;31.10;1.00;;;;;;5010669;28;20268;-74
2023/05/18 10:31:28;;;;;;;12.30;3.17;;;31.80;1.00;;;;;;5009793;28;20549;-74
2023/05/18 10:33:56;;;;;;;6.82;3.25;;;31.70;1.00;;;;;;5015070;28;20181;-74
2023/05/18 10:36:24;;;;;;;10.48;3.83;;;30.70;1.00;;;;;;5013550;28;20186;-73
2023/05/18 10:38:50;;;;;;;10.88;3.30;;;30.00;1.00;;;;;;5008932;28;20239;-73
2023/05/18 10:41:20;;;;;;;8.48;2.97;;;30.20;1.00;;;;;;5009656;28;20232;-73
2023/05/18 10:43:47;;;;;;;7.20;3.10;;;29.80;1.00;;;;;;5009824;28;20195;-73
2023/05/18 10:46:14;;;;;;;7.45;3.25;;;29.50;1.00;;;;;;5009691;28;20182;-74
2023/05/18 10:48:41;;;;;;;8.15;3.22;;;29.80;1.00;;;;;;5009685;28;20239;-74
2023/05/18 10:51:07;;;;;;;8.07;3.15;;;31.00;1.00;;;;;;5009797;28;20201;-74
2023/05/18 10:53:35;;;;;;;12.70;3.30;;;31.30;1.00;;;;;;5009229;28;20648;-73
2023/05/18 10:56:00;;;;;;;8.80;3.15;;;31.20;1.00;;;;;;5009603;28;20182;-73
2023/05/18 10:58:28;;;;;;;12.57;3.17;;;31.50;1.00;;;;;;5007567;28;20185;-74
2023/05/18 11:00:58;;;;;;;8.15;3.30;;;32.60;1.00;;;;;;5010232;28;20193;-74
2023/05/18 11:03:25;;;;;;;10.65;4.07;;;33.00;1.00;;;;;;5008805;28;20255;-75
2023/05/18 11:06:02;;;;;;;6.32;3.63;;;32.60;1.00;;;;;;5004050;28;20261;-76
2023/05/18 11:08:28;;;;;;;8.27;3.40;;;32.60;1.00;;;;;;5009614;28;20675;-75
2023/05/18 11:11:01;;;;;;;6.75;3.20;;;33.40;1.00;;;;;;5008381;28;20229;-76
2023/05/18 11:13:29;;;;;;;8.60;3.15;;;33.40;1.00;;;;;;5009147;28;20177;-75
2023/05/18 11:15:55;;;;;;;6.93;3.28;;;33.20;1.00;;;;;;5009566;28;20684;-75
2023/05/18 11:18:39;;;;;;;5.93;2.95;;;32.80;1.00;;;;;;5008114;28;20186;-76
2023/05/18 11:21:28;;;;;;;8.00;3.03;;;32.40;1.00;;;;;;5009482;28;20233;-77
2023/05/18 11:24:21;;;;;;;7.38;3.40;;;32.90;1.00;;;;;;5003563;28;20197;-76
2023/05/18 11:26:49;;;;;;;7.18;3.08;;;33.20;1.00;;;;;;5002659;28;20189;-76
2023/05/18 11:29:21;;;;;;;6.28;2.83;;;32.40;1.00;;;;;;5009058;28;20174;-76
2023/05/18 11:31:52;;;;;;;9.77;3.30;;;32.20;1.00;;;;;;5009228;28;20688;-76
2023/05/18 11:34:43;;;;;;;6.07;3.22;;;32.70;1.00;;;;;;5008810;28;20232;-76
2023/05/18 11:37:16;;;;;;;7.82;3.10;;;33.10;1.00;;;;;;5009432;28;20228;-76
2023/05/18 11:39:54;;;;;;;10.90;3.30;;;33.70;1.00;;;;;;5007651;28;20206;-75
2023/05/18 11:42:19;;;;;;;7.47;2.90;;;33.50;1.00;;;;;;5006609;28;20586;-75
2023/05/18 11:44:55;;;;;;;7.97;3.00;;;33.00;1.00;;;;;;5004231;28;20174;-75
2023/05/18 11:47:28;;;;;;;6.32;2.85;;;33.30;1.00;;;;;;5011726;28;20216;-76
2023/05/18 11:49:53;;;;;;;9.15;4.75;;;34.10;1.00;;;;;;5007110;28;20700;-75
2023/05/18 11:52:23;;;;;;;8.02;3.10;;;34.10;1.00;;;;;;5012630;28;20228;-75
2023/05/18 11:54:57;;;;;;;7.10;2.53;;;34.90;1.00;;;;;;5011637;28;20185;-76
2023/05/18 11:57:33;;;;;;;7.95;3.08;;;35.90;1.00;;;;;;5012275;28;20185;-76
2023/05/18 12:00:00;;;;;;;5.60;2.83;;;34.50;1.00;;;;;;5012867;28;20280;-76
2023/05/18 12:02:30;;;;;;;6.03;3.10;;;34.50;1.00;;;;;;5012443;28;20197;-76
2023/05/18 12:04:59;;;;;;;6.90;2.72;;;35.20;1.00;;;;;;5012484;28;20185;-76
2023/05/18 12:07:27;;;;;;;9.38;3.25;;;36.00;1.00;;;;;;5012454;28;20272;-76
2023/05/18 12:09:57;;;;;;;7.88;3.00;;;34.00;1.00;;;;;;5012577;28;20611;-76
2023/05/18 12:12:23;;;;;;;9.63;3.50;;;33.90;1.00;;;;;;5011794;28;20196;-76
2023/05/18 12:14:56;;;;;;;10.25;3.42;;;33.70;1.00;;;;;;5009664;28;20870;-75
2023/05/18 12:17:23;;;;;;;9.73;3.25;;;34.70;1.00;;;;;;5012066;28;20269;-76
2023/05/18 12:19:49;;;;;;;6.82;3.38;;;35.60;1.00;;;;;;5012661;28;20571;-75
2023/05/18 12:22:15;;;;;;;9.88;3.00;;;35.70;1.00;;;;;;5012420;28;20257;-75
2023/05/18 12:24:42;;;;;;;7.47;2.72;;;36.50;1.00;;;;;;5011727;28;20182;-76
2023/05/18 12:27:09;;;;;;;8.18;3.25;;;36.40;1.00;;;;;;5012892;28;20644;-75
2023/05/18 12:29:39;;;;;;;10.57;2.75;;;36.40;1.00;;;;;;5011977;28;20178;-76
2023/05/18 12:32:07;;;;;;;6.13;2.92;;;35.30;1.00;;;;;;5011950;28;20205;-75
2023/05/18 12:34:32;;;;;;;7.05;3.00;;;33.80;1.00;;;;;;5011246;28;20177;-76
2023/05/18 12:36:58;;;;;;;5.85;2.75;;;32.40;1.00;;;;;;5011927;28;20539;-75
2023/05/18 12:39:26;;;;;;;7.05;3.13;;;31.80;1.00;;;;;;5011020;28;20548;-75
2023/05/18 12:41:52;;;;;;;5.85;2.90;;;33.50;1.00;;;;;;5011477;28;20190;-75
2023/05/18 12:44:17;;;;;;;6.88;2.95;;;34.70;1.00;;;;;;5005123;28;20252;-74
2023/05/18 12:46:43;;;;;;;7.07;3.50;;;35.60;1.00;;;;;;5011536;28;20189;-75
2023/05/18 12:49:09;;;;;;;7.95;2.67;;;33.80;1.00;;;;;;5011121;28;20177;-75
2023/05/18 12:51:37;;;;;;;7.70;3.15;;;32.90;1.00;;;;;;5010638;28;20198;-77
2023/05/18 12:54:04;;;;;;;6.90;2.78;;;33.70;1.00;;;;;;5012142;28;20193;-74
2023/05/18 12:56:52;;;;;;;10.98;2.75;;;34.80;1.00;;;;;;5011585;28;20196;-76